createdAt,value
2017-10-29T00:01:37.698Z,6.20
2017-10-29T00:04:04.035Z,6.20
2017-10-29T00:06:30.962Z,6.00
2017-10-29T00:08:57.279Z,6.00
2017-10-29T00:11:23.603Z,6.00
2017-10-29T00:13:49.984Z,6.00
2017-10-29T00:16:16.306Z,6.00
2017-10-29T00:18:42.653Z,6.00
2017-10-29T00:21:09.811Z,6.00
2017-10-29T00:23:37.162Z,5.90
2017-10-29T00:26:04.263Z,5.90
2017-10-29T00:28:30.591Z,5.90
2017-10-29T00:30:56.934Z,5.90
2017-10-29T00:33:23.259Z,6.00
2017-10-29T00:35:49.617Z,6.00
2017-10-29T00:38:15.946Z,6.00
2017-10-29T00:40:42.299Z,6.00
2017-10-29T00:43:09.410Z,6.00
2017-10-29T00:45:35.762Z,6.00
2017-10-29T00:48:03.215Z,6.00
2017-10-29T00:50:29.555Z,6.10
2017-10-29T00:52:55.882Z,6.20
2017-10-29T00:55:22.250Z,6.20
2017-10-29T00:57:49.338Z,6.20
2017-10-29T01:00:15.726Z,6.20
2017-10-29T01:02:43.834Z,6.30
2017-10-29T01:05:10.215Z,6.30
2017-10-29T01:07:36.602Z,6.30
2017-10-29T01:10:02.978Z,6.30
2017-10-29T01:12:29.329Z,6.30
2017-10-29T01:14:55.685Z,6.20
2017-10-29T01:17:22.028Z,6.20
2017-10-29T01:19:48.398Z,6.20
2017-10-29T01:22:14.754Z,6.20
2017-10-29T01:24:41.152Z,6.20
2017-10-29T01:27:07.512Z,6.20
2017-10-29T01:29:34.633Z,6.10
2017-10-29T01:32:02.013Z,6.10
2017-10-29T01:34:29.133Z,6.10
2017-10-29T01:36:55.510Z,6.10
2017-10-29T01:39:21.838Z,6.10
2017-10-29T01:41:48.198Z,6.00
2017-10-29T01:46:53.806Z,6.00
2017-10-29T01:49:21.891Z,5.90
2017-10-29T01:51:48.991Z,5.90
2017-10-29T01:54:15.347Z,5.90
2017-10-29T01:56:41.683Z,5.90
2017-10-29T01:59:08.770Z,5.90
2017-10-29T02:01:35.147Z,5.90
2017-10-29T02:04:01.548Z,5.90
2017-10-29T02:06:27.898Z,5.90
2017-10-29T02:08:54.230Z,5.90
2017-10-29T02:11:20.578Z,5.90
2017-10-29T02:13:46.907Z,5.90
2017-10-29T02:16:13.258Z,5.90
2017-10-29T02:18:40.331Z,5.90
2017-10-29T02:21:07.447Z,5.90
2017-10-29T02:23:34.559Z,6.00
2017-10-29T02:26:00.882Z,5.90
2017-10-29T02:28:27.242Z,6.00
2017-10-29T02:30:54.476Z,6.00
2017-10-29T02:33:20.866Z,6.00
2017-10-29T02:35:47.208Z,6.00
2017-10-29T02:38:13.558Z,6.10
2017-10-29T02:40:39.900Z,6.10
2017-10-29T02:43:06.275Z,6.10
2017-10-29T02:45:32.633Z,6.10
2017-10-29T02:47:59.698Z,6.10
2017-10-29T02:50:26.067Z,6.10
2017-10-29T02:52:53.131Z,6.20
2017-10-29T02:55:19.442Z,6.10
2017-10-29T02:57:46.548Z,6.20
2017-10-29T03:00:12.883Z,6.20
2017-10-29T03:02:39.242Z,6.30
2017-10-29T03:05:06.674Z,6.40
2017-10-29T03:07:33.562Z,6.50
2017-10-29T03:10:00.659Z,6.60
2017-10-29T03:12:27.990Z,6.60
2017-10-29T03:14:54.327Z,6.60
2017-10-29T03:17:20.726Z,6.60
2017-10-29T03:19:48.808Z,6.60
2017-10-29T03:22:15.155Z,6.60
2017-10-29T03:24:41.502Z,6.70
2017-10-29T03:27:07.862Z,6.70
2017-10-29T03:29:34.226Z,6.80
2017-10-29T03:32:01.298Z,6.90
2017-10-29T03:34:27.655Z,6.90
2017-10-29T03:36:53.990Z,7.00
2017-10-29T03:39:21.388Z,7.00
2017-10-29T03:41:48.472Z,7.20
2017-10-29T03:44:14.812Z,7.20
2017-10-29T03:46:41.174Z,7.30
2017-10-29T03:49:07.498Z,7.40
2017-10-29T03:51:33.846Z,7.50
2017-10-29T03:54:00.947Z,7.60
2017-10-29T03:56:27.274Z,7.60
2017-10-29T03:58:53.615Z,7.70
2017-10-29T04:01:19.970Z,7.80
2017-10-29T04:03:46.362Z,7.80
2017-10-29T04:06:12.692Z,7.90
2017-10-29T04:08:39.090Z,7.90
2017-10-29T04:11:06.157Z,8.20
2017-10-29T04:13:32.482Z,8.20
2017-10-29T04:15:58.831Z,8.30
2017-10-29T04:18:25.170Z,8.30
2017-10-29T04:20:51.523Z,8.30
2017-10-29T04:23:17.860Z,8.40
2017-10-29T04:25:44.995Z,8.50
2017-10-29T04:28:11.314Z,8.50
2017-10-29T04:30:37.653Z,8.60
2017-10-29T04:33:03.991Z,8.60
2017-10-29T04:35:30.390Z,8.70
2017-10-29T04:37:56.737Z,8.70
2017-10-29T04:40:23.150Z,8.80
2017-10-29T04:42:49.519Z,8.80
2017-10-29T04:45:15.886Z,8.80
2017-10-29T04:47:42.232Z,8.80
2017-10-29T04:50:08.562Z,8.90
2017-10-29T04:52:34.882Z,9.00
2017-10-29T04:55:01.252Z,9.00
2017-10-29T04:57:27.605Z,9.10
2017-10-29T04:59:53.934Z,9.00
2017-10-29T05:02:20.287Z,9.00
2017-10-29T05:04:47.360Z,9.10
2017-10-29T05:07:13.745Z,9.00
2017-10-29T05:09:40.113Z,9.10
2017-10-29T05:12:06.454Z,9.00
2017-10-29T05:14:32.814Z,9.10
2017-10-29T05:16:59.148Z,9.10
2017-10-29T05:19:25.522Z,9.10
2017-10-29T05:21:52.603Z,9.10
2017-10-29T05:24:18.947Z,9.10
2017-10-29T05:26:45.274Z,9.20
2017-10-29T05:29:12.636Z,9.20
2017-10-29T05:31:39.019Z,9.20
2017-10-29T05:34:05.351Z,9.20
2017-10-29T05:36:31.698Z,9.20
2017-10-29T05:38:58.023Z,9.20
2017-10-29T05:41:24.385Z,9.20
2017-10-29T05:43:50.759Z,9.20
2017-10-29T05:46:17.862Z,9.20
2017-10-29T05:48:44.251Z,9.10
2017-10-29T05:51:12.367Z,9.00
2017-10-29T05:53:38.718Z,9.00
2017-10-29T05:56:05.071Z,8.80
2017-10-29T05:58:32.218Z,8.60
2017-10-29T06:00:59.384Z,8.50
2017-10-29T06:03:26.470Z,8.40
2017-10-29T06:05:52.854Z,8.40
2017-10-29T06:08:19.956Z,8.30
2017-10-29T06:10:46.348Z,8.30
2017-10-29T06:13:12.736Z,8.20
2017-10-29T06:15:39.090Z,8.20
2017-10-29T06:18:06.178Z,8.20
2017-10-29T06:20:32.563Z,8.10
2017-10-29T06:23:01.284Z,8.20
2017-10-29T06:25:27.658Z,8.20
2017-10-29T06:27:54.003Z,8.20
2017-10-29T06:30:20.387Z,8.10
2017-10-29T06:32:46.723Z,8.10
2017-10-29T06:35:13.074Z,8.10
2017-10-29T06:37:39.449Z,8.10
2017-10-29T06:40:06.554Z,8.10
2017-10-29T06:42:32.938Z,8.10
2017-10-29T06:44:59.325Z,8.10
2017-10-29T06:47:25.662Z,8.20
2017-10-29T06:49:52.371Z,8.30
2017-10-29T06:52:18.718Z,8.40
2017-10-29T06:54:45.118Z,8.50
2017-10-29T06:57:11.497Z,8.50
2017-10-29T06:59:39.679Z,8.50
2017-10-29T07:02:06.809Z,8.60
2017-10-29T07:04:33.186Z,8.60
2017-10-29T07:06:59.551Z,8.70
2017-10-29T07:09:25.938Z,8.70
2017-10-29T07:11:53.036Z,8.70
2017-10-29T07:14:19.434Z,8.70
2017-10-29T07:16:45.785Z,8.80
2017-10-29T07:19:12.920Z,8.90
2017-10-29T07:21:39.326Z,8.90
2017-10-29T07:24:06.482Z,9.10
2017-10-29T07:26:32.890Z,9.10
2017-10-29T07:28:59.303Z,9.10
2017-10-29T07:31:25.672Z,9.20
2017-10-29T07:33:52.791Z,9.30
2017-10-29T07:36:19.123Z,9.30
2017-10-29T07:38:45.483Z,9.40
2017-10-29T07:41:12.613Z,9.40
2017-10-29T07:43:39.002Z,9.40
2017-10-29T07:46:05.379Z,9.30
2017-10-29T07:48:32.495Z,9.30
2017-10-29T07:50:58.879Z,9.30
2017-10-29T07:53:25.266Z,9.30
2017-10-29T07:55:51.622Z,9.40
2017-10-29T07:58:18.690Z,9.50
2017-10-29T08:00:45.074Z,9.50
2017-10-29T08:03:11.406Z,9.60
2017-10-29T08:05:37.762Z,9.70
2017-10-29T08:08:04.886Z,9.80
2017-10-29T08:10:31.288Z,9.70
2017-10-29T08:12:58.375Z,9.90
2017-10-29T08:15:24.791Z,9.90
2017-10-29T08:17:51.130Z,9.90
2017-10-29T08:20:17.489Z,9.90
2017-10-29T08:22:44.582Z,9.80
2017-10-29T08:25:10.934Z,9.80
2017-10-29T08:27:37.282Z,9.80
2017-10-29T08:30:03.683Z,9.70
2017-10-29T08:32:30.007Z,9.60
2017-10-29T08:34:57.366Z,9.60
2017-10-29T08:37:23.698Z,9.60
2017-10-29T08:39:50.063Z,9.50
2017-10-29T08:42:16.395Z,9.50
2017-10-29T08:44:43.495Z,9.60
2017-10-29T08:47:09.895Z,9.50
2017-10-29T08:49:36.257Z,9.60
2017-10-29T08:52:02.618Z,9.60
2017-10-29T08:54:28.938Z,9.60
2017-10-29T08:56:55.297Z,9.70
2017-10-29T08:59:21.658Z,9.80
2017-10-29T09:01:47.991Z,9.80
2017-10-29T09:04:14.354Z,9.90
2017-10-29T09:06:40.687Z,9.90
2017-10-29T09:09:08.078Z,10.00
2017-10-29T09:11:35.211Z,9.90
2017-10-29T09:14:01.559Z,9.90
2017-10-29T09:16:28.650Z,9.90
2017-10-29T09:18:54.990Z,9.90
2017-10-29T09:21:21.370Z,9.80
2017-10-29T09:23:48.454Z,9.80
2017-10-29T09:26:14.806Z,9.80
2017-10-29T09:28:41.162Z,9.80
2017-10-29T09:31:07.491Z,9.90
2017-10-29T09:33:33.821Z,9.90
2017-10-29T09:36:00.171Z,9.90
2017-10-29T09:38:27.247Z,10.00
2017-10-29T09:40:53.570Z,10.00
2017-10-29T09:43:19.934Z,10.10
2017-10-29T09:45:46.327Z,10.10
2017-10-29T09:48:12.662Z,10.20
2017-10-29T09:50:39.030Z,10.20
2017-10-29T09:53:05.402Z,10.20
2017-10-29T09:55:32.479Z,9.70
2017-10-29T09:57:58.822Z,9.70
2017-10-29T10:00:25.186Z,9.60
2017-10-29T10:02:51.510Z,9.50
2017-10-29T10:05:17.867Z,9.40
2017-10-29T10:07:44.935Z,9.30
2017-10-29T10:10:11.303Z,9.30
2017-10-29T10:12:37.657Z,9.30
2017-10-29T10:15:04.022Z,9.20
2017-10-29T10:17:31.097Z,8.90
2017-10-29T10:19:57.448Z,8.90
2017-10-29T10:22:23.784Z,8.80
2017-10-29T10:24:50.116Z,8.80
2017-10-29T10:27:16.478Z,8.70
2017-10-29T10:29:42.951Z,8.70
2017-10-29T10:32:10.099Z,8.60
2017-10-29T10:34:36.467Z,8.60
2017-10-29T10:37:02.831Z,8.60
2017-10-29T10:39:29.923Z,8.60
2017-10-29T10:41:56.261Z,8.60
2017-10-29T10:44:22.595Z,8.70
2017-10-29T10:46:48.932Z,8.70
2017-10-29T10:49:15.300Z,8.70
2017-10-29T10:51:42.447Z,8.70
2017-10-29T10:54:09.539Z,8.70
2017-10-29T10:56:40.918Z,8.70
2017-10-29T10:59:07.298Z,8.60
2017-10-29T11:01:33.664Z,8.70
2017-10-29T11:04:00.991Z,8.60
2017-10-29T11:06:27.347Z,8.60
2017-10-29T11:08:53.698Z,8.60
2017-10-29T11:11:20.072Z,8.60
2017-10-29T11:13:46.417Z,8.60
2017-10-29T11:16:12.774Z,8.70
2017-10-29T11:18:39.188Z,8.70
2017-10-29T11:21:05.554Z,8.60
2017-10-29T11:23:31.975Z,8.70
2017-10-29T11:26:01.022Z,8.70
2017-10-29T11:28:27.383Z,8.70
2017-10-29T11:30:53.726Z,8.70
2017-10-29T11:33:20.083Z,8.70
2017-10-29T11:35:46.699Z,8.60
2017-10-29T11:38:13.054Z,8.50
2017-10-29T11:40:39.433Z,8.50
2017-10-29T11:43:05.779Z,8.50
2017-10-29T11:45:32.135Z,8.50
2017-10-29T11:47:58.472Z,8.40
2017-10-29T11:50:25.800Z,8.40
2017-10-29T11:52:52.158Z,8.40
2017-10-29T11:55:18.478Z,8.30
2017-10-29T11:57:44.806Z,8.10
2017-10-29T12:00:11.160Z,7.70
2017-10-29T12:02:37.482Z,7.30
2017-10-29T12:05:03.827Z,7.00
2017-10-29T12:07:30.924Z,6.70
2017-10-29T12:09:57.286Z,6.70
2017-10-29T12:12:23.669Z,6.70
2017-10-29T12:14:50.040Z,6.60
2017-10-29T12:17:16.375Z,6.70
2017-10-29T12:19:42.738Z,6.70
2017-10-29T12:22:10.210Z,6.60
2017-10-29T12:24:37.562Z,6.60
2017-10-29T12:27:04.959Z,6.70
2017-10-29T12:29:31.355Z,6.80
2017-10-29T12:31:57.690Z,6.90
2017-10-29T12:34:24.082Z,7.00
2017-10-29T12:36:51.158Z,7.00
2017-10-29T12:39:17.563Z,7.00
2017-10-29T12:41:44.623Z,7.00
2017-10-29T12:44:10.991Z,6.90
2017-10-29T12:46:38.355Z,7.00
2017-10-29T12:49:04.703Z,7.00
2017-10-29T12:51:32.070Z,7.00
2017-10-29T12:53:58.395Z,7.00
2017-10-29T12:56:24.755Z,7.00
2017-10-29T12:58:51.855Z,7.00
2017-10-29T13:01:18.203Z,6.90
2017-10-29T13:03:44.524Z,7.00
2017-10-29T13:06:10.882Z,7.00
2017-10-29T13:08:37.960Z,7.00
2017-10-29T13:11:04.358Z,6.90
2017-10-29T13:13:30.723Z,6.90
2017-10-29T13:15:57.103Z,7.00
2017-10-29T13:18:23.449Z,7.10
2017-10-29T13:20:50.534Z,7.20
2017-10-29T13:23:16.877Z,7.10
2017-10-29T13:25:44.806Z,7.10
2017-10-29T13:28:11.142Z,7.20
2017-10-29T13:30:39.285Z,7.30
2017-10-29T13:33:05.626Z,7.20
2017-10-29T13:35:32.732Z,7.40
2017-10-29T13:37:59.342Z,7.40
2017-10-29T13:40:26.463Z,7.40
2017-10-29T13:42:53.531Z,7.40
2017-10-29T13:45:19.871Z,7.40
2017-10-29T13:47:46.282Z,7.50
2017-10-29T13:50:13.352Z,7.40
2017-10-29T13:52:40.731Z,7.40
2017-10-29T13:55:07.103Z,7.40
2017-10-29T13:57:33.443Z,7.30
2017-10-29T14:00:00.519Z,7.40
2017-10-29T14:02:26.863Z,7.80
2017-10-29T14:04:53.222Z,7.40
2017-10-29T14:07:19.552Z,7.40
2017-10-29T14:09:45.922Z,7.30
2017-10-29T14:12:13.007Z,7.40
2017-10-29T14:14:39.367Z,7.30
2017-10-29T14:17:05.698Z,7.30
2017-10-29T14:19:32.067Z,7.30
2017-10-29T14:21:58.424Z,7.30
2017-10-29T14:24:24.771Z,7.30
2017-10-29T14:26:51.106Z,7.30
2017-10-29T14:29:17.455Z,7.30
2017-10-29T14:31:43.776Z,7.30
2017-10-29T14:34:10.173Z,7.30
2017-10-29T14:36:36.510Z,7.20
2017-10-29T14:39:02.906Z,7.20
2017-10-29T14:41:30.008Z,7.10
2017-10-29T14:43:56.354Z,7.10
2017-10-29T14:46:22.715Z,7.10
2017-10-29T14:48:49.842Z,7.10
2017-10-29T14:51:16.979Z,7.00
2017-10-29T14:53:43.318Z,7.00
2017-10-29T14:56:10.672Z,7.00
2017-10-29T14:58:37.043Z,7.00
2017-10-29T15:01:03.430Z,7.00
2017-10-29T15:03:29.784Z,6.90
2017-10-29T15:05:57.187Z,6.90
2017-10-29T15:08:23.542Z,6.90
2017-10-29T15:10:49.917Z,7.00
2017-10-29T15:13:16.241Z,6.90
2017-10-29T15:15:42.664Z,6.80
2017-10-29T15:18:09.718Z,6.70
2017-10-29T15:20:36.783Z,6.70
2017-10-29T15:23:03.159Z,6.70
2017-10-29T15:25:29.500Z,6.70
2017-10-29T15:27:55.854Z,6.60
2017-10-29T15:30:22.982Z,6.50
2017-10-29T15:32:49.317Z,6.50
2017-10-29T15:35:15.648Z,6.50
2017-10-29T15:37:42.038Z,6.40
2017-10-29T15:40:08.371Z,6.30
2017-10-29T15:42:34.784Z,6.30
2017-10-29T15:45:01.120Z,6.30
2017-10-29T15:47:27.685Z,6.20
2017-10-29T15:49:54.036Z,6.20
2017-10-29T15:52:20.391Z,6.20
2017-10-29T15:54:46.708Z,6.20
2017-10-29T15:57:13.802Z,6.10
2017-10-29T15:59:40.168Z,6.10
2017-10-29T16:02:06.519Z,6.10
2017-10-29T16:04:33.602Z,5.90
2017-10-29T16:06:59.935Z,5.90
2017-10-29T16:09:26.282Z,5.90
2017-10-29T16:11:52.626Z,6.00
2017-10-29T16:14:18.979Z,5.90
2017-10-29T16:16:47.079Z,5.90
2017-10-29T16:19:13.421Z,5.80
2017-10-29T16:21:39.743Z,5.90
2017-10-29T16:24:06.134Z,5.90
2017-10-29T16:26:32.473Z,5.80
2017-10-29T16:28:59.546Z,5.80
2017-10-29T16:31:25.923Z,5.80
2017-10-29T16:33:52.251Z,5.70
2017-10-29T16:36:18.566Z,5.60
2017-10-29T16:38:44.924Z,5.70
2017-10-29T16:41:11.267Z,5.70
2017-10-29T16:43:37.620Z,5.60
2017-10-29T16:46:05.725Z,5.50
2017-10-29T16:48:32.082Z,5.50
2017-10-29T16:50:58.396Z,5.50
2017-10-29T16:53:24.756Z,5.60
2017-10-29T16:55:51.082Z,5.50
2017-10-29T16:58:17.439Z,5.50
2017-10-29T17:00:44.515Z,5.40
2017-10-29T17:03:10.870Z,5.40
2017-10-29T17:05:37.226Z,5.40
2017-10-29T17:08:03.579Z,5.50
2017-10-29T17:10:30.683Z,5.40
2017-10-29T17:12:59.471Z,5.30
2017-10-29T17:15:25.828Z,5.40
2017-10-29T17:17:52.183Z,5.30
2017-10-29T17:20:18.538Z,5.30
2017-10-29T17:22:45.623Z,5.40
2017-10-29T17:25:13.021Z,5.30
2017-10-29T17:27:39.371Z,5.30
2017-10-29T17:30:05.730Z,5.30
2017-10-29T17:32:32.078Z,5.30
2017-10-29T17:34:59.382Z,5.30
2017-10-29T17:37:25.727Z,5.20
2017-10-29T17:39:52.086Z,5.20
2017-10-29T17:42:18.427Z,5.20
2017-10-29T17:44:44.798Z,5.20
2017-10-29T17:47:11.147Z,5.10
2017-10-29T17:49:37.513Z,5.10
2017-10-29T17:52:03.908Z,5.00
2017-10-29T17:54:30.252Z,5.00
2017-10-29T17:56:56.597Z,5.00
2017-10-29T17:59:22.927Z,5.00
2017-10-29T18:01:49.284Z,5.00
2017-10-29T18:04:16.355Z,5.00
2017-10-29T18:06:42.706Z,5.00
2017-10-29T18:09:09.078Z,5.10
2017-10-29T18:11:35.408Z,5.00
2017-10-29T18:14:02.759Z,5.00
2017-10-29T18:16:29.116Z,5.00
2017-10-29T18:18:56.182Z,4.80
2017-10-29T18:21:22.542Z,4.80
2017-10-29T18:23:48.878Z,4.70
2017-10-29T18:26:15.210Z,4.70
2017-10-29T18:28:41.566Z,4.70
2017-10-29T18:31:07.878Z,4.70
2017-10-29T18:33:34.238Z,4.60
2017-10-29T18:36:01.320Z,4.60
2017-10-29T18:38:27.662Z,4.60
2017-10-29T18:40:54.008Z,4.60
2017-10-29T18:43:20.365Z,4.70
2017-10-29T18:45:46.687Z,4.60
2017-10-29T18:48:13.007Z,4.50
2017-10-29T18:50:39.375Z,4.50
2017-10-29T18:53:06.441Z,4.50
2017-10-29T18:55:32.776Z,4.50
2017-10-29T18:58:05.658Z,4.50
2017-10-29T19:00:32.000Z,4.50
2017-10-29T19:02:58.343Z,4.60
2017-10-29T19:05:24.692Z,4.60
2017-10-29T19:07:51.068Z,4.50
2017-10-29T19:10:17.400Z,4.50
2017-10-29T19:12:43.774Z,4.40
2017-10-29T19:15:10.101Z,4.50
2017-10-29T19:17:36.447Z,4.40
2017-10-29T19:20:02.798Z,4.50
2017-10-29T19:22:29.899Z,4.50
2017-10-29T19:24:56.223Z,4.50
2017-10-29T19:27:22.562Z,4.50
2017-10-29T19:29:48.915Z,4.50
2017-10-29T19:32:15.262Z,4.50
2017-10-29T19:34:41.619Z,4.40
2017-10-29T19:37:07.963Z,4.50
2017-10-29T19:39:34.300Z,4.50
2017-10-29T19:42:00.726Z,4.50
2017-10-29T19:44:27.043Z,4.40
2017-10-29T19:46:54.518Z,4.40
2017-10-29T19:49:20.864Z,4.40
2017-10-29T19:51:47.211Z,4.30
2017-10-29T19:54:13.546Z,4.30
2017-10-29T19:56:39.898Z,4.30
2017-10-29T19:59:06.208Z,4.30
2017-10-29T20:01:32.538Z,4.30
2017-10-29T20:03:58.893Z,4.30
2017-10-29T20:06:25.967Z,4.20
2017-10-29T20:08:52.339Z,4.20
2017-10-29T20:11:18.663Z,4.30
2017-10-29T20:13:45.046Z,4.30
2017-10-29T20:16:12.123Z,4.20
2017-10-29T20:18:38.467Z,4.20
2017-10-29T20:21:04.810Z,4.30
2017-10-29T20:23:31.184Z,4.20
2017-10-29T20:25:58.299Z,4.10
2017-10-29T20:28:24.663Z,4.10
2017-10-29T20:30:51.718Z,4.10
2017-10-29T20:33:18.052Z,4.00
2017-10-29T20:35:45.398Z,4.10
2017-10-29T20:38:12.458Z,4.10
2017-10-29T20:40:38.817Z,4.10
2017-10-29T20:43:05.162Z,4.10
2017-10-29T20:45:31.498Z,4.00
2017-10-29T20:47:57.811Z,4.10
2017-10-29T20:50:24.160Z,4.10
2017-10-29T20:52:50.536Z,4.10
2017-10-29T20:55:17.899Z,4.10
2017-10-29T20:57:44.252Z,4.00
2017-10-29T21:00:10.578Z,4.10
2017-10-29T21:02:36.910Z,4.00
2017-10-29T21:05:03.289Z,4.00
2017-10-29T21:07:30.378Z,4.10
2017-10-29T21:09:56.718Z,4.10
2017-10-29T21:12:23.067Z,4.10
2017-10-29T21:14:49.386Z,4.00
2017-10-29T21:17:16.639Z,4.00
2017-10-29T21:19:42.995Z,4.00
2017-10-29T21:22:09.338Z,3.90
2017-10-29T21:24:36.484Z,3.90
2017-10-29T21:27:02.867Z,3.80
2017-10-29T21:29:29.210Z,3.90
2017-10-29T21:31:55.534Z,3.90
2017-10-29T21:34:21.895Z,3.80
2017-10-29T21:36:48.231Z,3.80
2017-10-29T21:39:14.654Z,3.80
2017-10-29T21:41:41.017Z,3.70
2017-10-29T21:44:08.098Z,3.60
2017-10-29T21:46:34.470Z,3.60
2017-10-29T21:49:01.814Z,3.50
2017-10-29T21:51:28.175Z,3.60
2017-10-29T21:53:55.246Z,3.60
2017-10-29T21:56:21.605Z,3.50
2017-10-29T21:58:47.933Z,3.60
2017-10-29T22:01:14.279Z,3.60
2017-10-29T22:03:40.620Z,3.70
2017-10-29T22:06:07.048Z,3.80
2017-10-29T22:08:33.419Z,3.80
2017-10-29T22:10:59.758Z,3.80
2017-10-29T22:13:26.107Z,3.90
2017-10-29T22:15:52.455Z,4.00
2017-10-29T22:18:18.778Z,4.00
2017-10-29T22:20:45.155Z,4.00
2017-10-29T22:23:12.223Z,4.10
2017-10-29T22:25:38.578Z,4.10
2017-10-29T22:28:05.919Z,4.20
2017-10-29T22:30:32.257Z,4.20
2017-10-29T22:32:58.575Z,4.20
2017-10-29T22:35:24.957Z,4.20
2017-10-29T22:37:51.316Z,4.20
2017-10-29T22:40:18.403Z,4.20
2017-10-29T22:42:44.782Z,4.10
2017-10-29T22:45:12.921Z,4.20
2017-10-29T22:47:39.321Z,4.20
2017-10-29T22:50:05.647Z,4.20
2017-10-29T22:52:32.003Z,4.10
2017-10-29T22:54:58.349Z,4.00
2017-10-29T22:57:24.725Z,4.00
2017-10-29T22:59:51.071Z,3.90
2017-10-29T23:02:17.403Z,3.90
2017-10-29T23:04:55.844Z,3.90
2017-10-29T23:07:22.203Z,3.90
2017-10-29T23:09:48.526Z,3.90
2017-10-29T23:12:14.889Z,3.90
2017-10-29T23:14:42.979Z,3.80
2017-10-29T23:17:09.394Z,3.70
2017-10-29T23:19:36.492Z,3.70
2017-10-29T23:22:03.730Z,3.70
2017-10-29T23:24:30.061Z,3.70
2017-10-29T23:26:56.399Z,3.70
2017-10-29T23:29:22.722Z,3.60
2017-10-29T23:31:49.046Z,3.60
2017-10-29T23:34:15.389Z,3.60
2017-10-29T23:36:41.755Z,3.60
2017-10-29T23:39:08.078Z,3.50
2017-10-29T23:41:34.426Z,3.60
2017-10-29T23:44:01.492Z,3.60
2017-10-29T23:46:27.859Z,3.60
2017-10-29T23:48:54.194Z,3.70
2017-10-29T23:51:20.530Z,3.60
2017-10-29T23:53:46.904Z,3.60
2017-10-29T23:56:13.992Z,3.50
2017-10-29T23:58:40.351Z,3.50
